sensor_id;sensor_type;location;lat;lon;timestamp;P1;durP1;ratioP1;P2;durP2;ratioP2
33154;SDS011;19511;42.682;23.332;2023-04-29T00:01:52;17.95;;;5.88;;
33154;SDS011;19511;42.682;23.332;2023-04-29T00:04:22;12.80;;;5.10;;
33154;SDS011;19511;42.682;23.332;2023-04-29T00:06:48;10.80;;;6.00;;
33154;SDS011;19511;42.682;23.332;2023-04-29T00:09:14;8.27;;;4.47;;
33154;SDS011;19511;42.682;23.332;2023-04-29T00:11:39;12.52;;;5.68;;
33154;SDS011;19511;42.682;23.332;2023-04-29T00:14:05;10.40;;;4.00;;
33154;SDS011;19511;42.682;23.332;2023-04-29T00:16:30;7.93;;;3.80;;
33154;SDS011;19511;42.682;23.332;2023-04-29T00:18:56;8.18;;;4.63;;
33154;SDS011;19511;42.682;23.332;2023-04-29T00:21:21;8.45;;;4.68;;
33154;SDS011;19511;42.682;23.332;2023-04-29T00:23:46;11.80;;;4.90;;
33154;SDS011;19511;42.682;23.332;2023-04-29T00:26:12;9.82;;;5.15;;
33154;SDS011;19511;42.682;23.332;2023-04-29T00:28:38;10.93;;;5.22;;
33154;SDS011;19511;42.682;23.332;2023-04-29T00:31:03;7.70;;;3.70;;
33154;SDS011;19511;42.682;23.332;2023-04-29T00:33:28;10.52;;;4.82;;
33154;SDS011;19511;42.682;23.332;2023-04-29T00:35:54;16.02;;;4.95;;
33154;SDS011;19511;42.682;23.332;2023-04-29T00:38:20;8.23;;;4.75;;
33154;SDS011;19511;42.682;23.332;2023-04-29T00:40:49;7.25;;;4.25;;
33154;SDS011;19511;42.682;23.332;2023-04-29T00:43:20;11.07;;;4.90;;
33154;SDS011;19511;42.682;23.332;2023-04-29T00:45:46;7.68;;;4.15;;
33154;SDS011;19511;42.682;23.332;2023-04-29T00:48:12;9.80;;;3.95;;
33154;SDS011;19511;42.682;23.332;2023-04-29T00:50:39;5.30;;;3.38;;
33154;SDS011;19511;42.682;23.332;2023-04-29T00:53:05;6.55;;;3.25;;
33154;SDS011;19511;42.682;23.332;2023-04-29T00:55:31;11.18;;;3.20;;
33154;SDS011;19511;42.682;23.332;2023-04-29T00:57:58;5.40;;;2.95;;
33154;SDS011;19511;42.682;23.332;2023-04-29T01:00:23;9.63;;;3.30;;
33154;SDS011;19511;42.682;23.332;2023-04-29T01:02:50;3.45;;;2.13;;
33154;SDS011;19511;42.682;23.332;2023-04-29T01:05:18;2.40;;;2.20;;
33154;SDS011;19511;42.682;23.332;2023-04-29T01:13:18;6.18;;;3.20;;
33154;SDS011;19511;42.682;23.332;2023-04-29T01:16:01;7.60;;;3.75;;
33154;SDS011;19511;42.682;23.332;2023-04-29T01:18:30;5.70;;;3.20;;
33154;SDS011;19511;42.682;23.332;2023-04-29T01:21:00;3.60;;;2.45;;
33154;SDS011;19511;42.682;23.332;2023-04-29T01:23:27;8.73;;;2.58;;
33154;SDS011;19511;42.682;23.332;2023-04-29T01:25:54;5.50;;;3.10;;
33154;SDS011;19511;42.682;23.332;2023-04-29T01:38:52;16.70;;;3.28;;
33154;SDS011;19511;42.682;23.332;2023-04-29T01:44:07;4.43;;;2.60;;
33154;SDS011;19511;42.682;23.332;2023-04-29T01:46:36;4.28;;;2.97;;
33154;SDS011;19511;42.682;23.332;2023-04-29T01:49:02;6.10;;;2.55;;
33154;SDS011;19511;42.682;23.332;2023-04-29T01:51:28;6.20;;;3.22;;
33154;SDS011;19511;42.682;23.332;2023-04-29T01:53:53;5.93;;;3.15;;
33154;SDS011;19511;42.682;23.332;2023-04-29T01:56:19;5.20;;;3.25;;
33154;SDS011;19511;42.682;23.332;2023-04-29T01:58:44;5.65;;;2.85;;
33154;SDS011;19511;42.682;23.332;2023-04-29T02:01:10;4.78;;;2.22;;
33154;SDS011;19511;42.682;23.332;2023-04-29T02:03:35;6.85;;;3.00;;
33154;SDS011;19511;42.682;23.332;2023-04-29T02:06:01;3.55;;;2.70;;
33154;SDS011;19511;42.682;23.332;2023-04-29T02:08:26;8.50;;;4.07;;
33154;SDS011;19511;42.682;23.332;2023-04-29T02:10:55;6.90;;;3.63;;
33154;SDS011;19511;42.682;23.332;2023-04-29T02:13:22;9.00;;;4.10;;
33154;SDS011;19511;42.682;23.332;2023-04-29T02:15:48;11.95;;;3.22;;
33154;SDS011;19511;42.682;23.332;2023-04-29T02:18:13;7.93;;;3.58;;
33154;SDS011;19511;42.682;23.332;2023-04-29T02:20:39;7.53;;;3.25;;
33154;SDS011;19511;42.682;23.332;2023-04-29T02:23:05;7.22;;;3.85;;
33154;SDS011;19511;42.682;23.332;2023-04-29T02:25:30;7.88;;;3.97;;
33154;SDS011;19511;42.682;23.332;2023-04-29T02:27:56;6.68;;;3.67;;
33154;SDS011;19511;42.682;23.332;2023-04-29T02:30:21;11.88;;;3.85;;
33154;SDS011;19511;42.682;23.332;2023-04-29T02:32:46;5.05;;;2.95;;
33154;SDS011;19511;42.682;23.332;2023-04-29T02:35:12;7.18;;;3.53;;
33154;SDS011;19511;42.682;23.332;2023-04-29T02:37:37;8.73;;;3.83;;
33154;SDS011;19511;42.682;23.332;2023-04-29T02:40:03;8.82;;;4.10;;
33154;SDS011;19511;42.682;23.332;2023-04-29T02:42:30;10.07;;;5.03;;
33154;SDS011;19511;42.682;23.332;2023-04-29T02:44:55;12.70;;;3.45;;
33154;SDS011;19511;42.682;23.332;2023-04-29T02:47:25;12.57;;;3.88;;
33154;SDS011;19511;42.682;23.332;2023-04-29T02:49:53;7.20;;;3.80;;
33154;SDS011;19511;42.682;23.332;2023-04-29T02:52:22;9.48;;;4.45;;
33154;SDS011;19511;42.682;23.332;2023-04-29T02:54:48;6.03;;;4.18;;
33154;SDS011;19511;42.682;23.332;2023-04-29T02:57:13;15.50;;;5.50;;
33154;SDS011;19511;42.682;23.332;2023-04-29T02:59:38;9.65;;;3.90;;
33154;SDS011;19511;42.682;23.332;2023-04-29T03:02:04;8.13;;;3.92;;
33154;SDS011;19511;42.682;23.332;2023-04-29T03:04:29;9.05;;;3.97;;
33154;SDS011;19511;42.682;23.332;2023-04-29T03:06:55;10.95;;;3.60;;
33154;SDS011;19511;42.682;23.332;2023-04-29T03:09:21;9.80;;;4.95;;
33154;SDS011;19511;42.682;23.332;2023-04-29T03:11:47;7.47;;;4.57;;
33154;SDS011;19511;42.682;23.332;2023-04-29T03:14:13;13.27;;;4.53;;
33154;SDS011;19511;42.682;23.332;2023-04-29T03:16:42;8.00;;;4.28;;
33154;SDS011;19511;42.682;23.332;2023-04-29T03:19:10;10.90;;;3.72;;
33154;SDS011;19511;42.682;23.332;2023-04-29T03:21:36;7.07;;;4.30;;
33154;SDS011;19511;42.682;23.332;2023-04-29T03:24:01;11.27;;;4.68;;
33154;SDS011;19511;42.682;23.332;2023-04-29T03:26:27;8.27;;;3.72;;
33154;SDS011;19511;42.682;23.332;2023-04-29T03:28:52;7.45;;;3.80;;
33154;SDS011;19511;42.682;23.332;2023-04-29T03:31:18;6.00;;;3.55;;
33154;SDS011;19511;42.682;23.332;2023-04-29T03:33:45;13.60;;;3.60;;
33154;SDS011;19511;42.682;23.332;2023-04-29T03:36:14;5.82;;;3.92;;
33154;SDS011;19511;42.682;23.332;2023-04-29T03:38:40;9.55;;;4.50;;
33154;SDS011;19511;42.682;23.332;2023-04-29T03:41:05;7.55;;;3.92;;
33154;SDS011;19511;42.682;23.332;2023-04-29T03:43:31;8.57;;;4.03;;
33154;SDS011;19511;42.682;23.332;2023-04-29T03:45:57;10.43;;;3.80;;
33154;SDS011;19511;42.682;23.332;2023-04-29T03:48:23;7.53;;;3.53;;
33154;SDS011;19511;42.682;23.332;2023-04-29T03:50:48;5.70;;;3.38;;
33154;SDS011;19511;42.682;23.332;2023-04-29T03:53:14;14.65;;;3.88;;
33154;SDS011;19511;42.682;23.332;2023-04-29T03:55:40;8.02;;;4.15;;
33154;SDS011;19511;42.682;23.332;2023-04-29T03:58:06;8.73;;;4.07;;
33154;SDS011;19511;42.682;23.332;2023-04-29T04:00:31;9.30;;;4.75;;
33154;SDS011;19511;42.682;23.332;2023-04-29T04:02:57;10.23;;;4.65;;
33154;SDS011;19511;42.682;23.332;2023-04-29T04:05:23;9.00;;;3.55;;
33154;SDS011;19511;42.682;23.332;2023-04-29T04:07:50;8.95;;;3.53;;
33154;SDS011;19511;42.682;23.332;2023-04-29T04:10:16;14.07;;;4.22;;
33154;SDS011;19511;42.682;23.332;2023-04-29T04:12:42;13.88;;;4.82;;
33154;SDS011;19511;42.682;23.332;2023-04-29T04:15:08;19.92;;;4.03;;
33154;SDS011;19511;42.682;23.332;2023-04-29T04:17:34;8.70;;;3.83;;
33154;SDS011;19511;42.682;23.332;2023-04-29T04:19:59;7.18;;;4.03;;
33154;SDS011;19511;42.682;23.332;2023-04-29T04:22:25;4.55;;;2.92;;
33154;SDS011;19511;42.682;23.332;2023-04-29T04:24:50;5.93;;;3.47;;
33154;SDS011;19511;42.682;23.332;2023-04-29T04:27:20;6.38;;;2.88;;
33154;SDS011;19511;42.682;23.332;2023-04-29T04:29:45;5.97;;;3.45;;
33154;SDS011;19511;42.682;23.332;2023-04-29T04:32:11;5.88;;;3.30;;
33154;SDS011;19511;42.682;23.332;2023-04-29T04:34:36;5.30;;;3.20;;
33154;SDS011;19511;42.682;23.332;2023-04-29T04:37:05;6.43;;;3.65;;
33154;SDS011;19511;42.682;23.332;2023-04-29T04:39:30;4.57;;;3.17;;
33154;SDS011;19511;42.682;23.332;2023-04-29T04:41:56;7.63;;;3.45;;
33154;SDS011;19511;42.682;23.332;2023-04-29T04:44:22;4.75;;;3.20;;
33154;SDS011;19511;42.682;23.332;2023-04-29T04:46:47;4.97;;;3.35;;
33154;SDS011;19511;42.682;23.332;2023-04-29T04:49:14;9.75;;;4.25;;
33154;SDS011;19511;42.682;23.332;2023-04-29T04:51:42;7.00;;;4.15;;
33154;SDS011;19511;42.682;23.332;2023-04-29T04:54:08;5.88;;;3.38;;
33154;SDS011;19511;42.682;23.332;2023-04-29T04:56:34;3.60;;;2.67;;
33154;SDS011;19511;42.682;23.332;2023-04-29T04:59:01;10.00;;;3.28;;
33154;SDS011;19511;42.682;23.332;2023-04-29T05:01:27;4.60;;;3.03;;
33154;SDS011;19511;42.682;23.332;2023-04-29T05:03:56;7.22;;;4.30;;
33154;SDS011;19511;42.682;23.332;2023-04-29T05:06:26;9.30;;;3.40;;
33154;SDS011;19511;42.682;23.332;2023-04-29T05:08:52;6.70;;;3.78;;
33154;SDS011;19511;42.682;23.332;2023-04-29T05:11:17;8.07;;;3.65;;
33154;SDS011;19511;42.682;23.332;2023-04-29T05:13:44;6.78;;;3.72;;
33154;SDS011;19511;42.682;23.332;2023-04-29T05:16:09;6.75;;;3.75;;
33154;SDS011;19511;42.682;23.332;2023-04-29T05:18:35;12.77;;;5.03;;
33154;SDS011;19511;42.682;23.332;2023-04-29T05:21:01;11.02;;;4.07;;
33154;SDS011;19511;42.682;23.332;2023-04-29T05:23:26;9.43;;;4.97;;
33154;SDS011;19511;42.682;23.332;2023-04-29T05:25:52;11.73;;;3.65;;
33154;SDS011;19511;42.682;23.332;2023-04-29T05:28:18;8.68;;;4.40;;
33154;SDS011;19511;42.682;23.332;2023-04-29T05:30:43;10.57;;;4.65;;
33154;SDS011;19511;42.682;23.332;2023-04-29T05:33:09;7.20;;;3.70;;
33154;SDS011;19511;42.682;23.332;2023-04-29T05:35:35;10.73;;;3.78;;
33154;SDS011;19511;42.682;23.332;2023-04-29T05:38:01;10.48;;;4.75;;
33154;SDS011;19511;42.682;23.332;2023-04-29T05:40:26;16.38;;;4.82;;
33154;SDS011;19511;42.682;23.332;2023-04-29T05:42:52;6.68;;;3.22;;
33154;SDS011;19511;42.682;23.332;2023-04-29T05:45:17;6.30;;;3.42;;
33154;SDS011;19511;42.682;23.332;2023-04-29T05:47:43;10.25;;;4.20;;
33154;SDS011;19511;42.682;23.332;2023-04-29T05:50:08;9.15;;;4.32;;
33154;SDS011;19511;42.682;23.332;2023-04-29T05:52:35;8.30;;;4.35;;
33154;SDS011;19511;42.682;23.332;2023-04-29T05:55:01;7.25;;;4.50;;
33154;SDS011;19511;42.682;23.332;2023-04-29T05:57:26;10.35;;;4.38;;
33154;SDS011;19511;42.682;23.332;2023-04-29T05:59:52;24.10;;;4.10;;
33154;SDS011;19511;42.682;23.332;2023-04-29T06:02:19;11.38;;;4.95;;
33154;SDS011;19511;42.682;23.332;2023-04-29T06:04:48;9.40;;;4.60;;
33154;SDS011;19511;42.682;23.332;2023-04-29T06:07:13;7.28;;;4.18;;
33154;SDS011;19511;42.682;23.332;2023-04-29T06:09:38;13.57;;;4.88;;
33154;SDS011;19511;42.682;23.332;2023-04-29T06:12:04;10.77;;;4.35;;
33154;SDS011;19511;42.682;23.332;2023-04-29T06:14:30;13.90;;;5.80;;
33154;SDS011;19511;42.682;23.332;2023-04-29T06:16:55;10.52;;;4.18;;
33154;SDS011;19511;42.682;23.332;2023-04-29T06:19:21;6.28;;;3.45;;
33154;SDS011;19511;42.682;23.332;2023-04-29T06:21:47;4.93;;;3.45;;
33154;SDS011;19511;42.682;23.332;2023-04-29T06:24:19;7.57;;;4.15;;
33154;SDS011;19511;42.682;23.332;2023-04-29T06:29:10;7.55;;;4.38;;
33154;SDS011;19511;42.682;23.332;2023-04-29T06:31:36;5.97;;;4.10;;
33154;SDS011;19511;42.682;23.332;2023-04-29T06:34:02;8.95;;;4.13;;
33154;SDS011;19511;42.682;23.332;2023-04-29T06:36:27;8.57;;;4.10;;
33154;SDS011;19511;42.682;23.332;2023-04-29T06:38:53;6.60;;;4.18;;
33154;SDS011;19511;42.682;23.332;2023-04-29T06:41:18;11.52;;;3.45;;
33154;SDS011;19511;42.682;23.332;2023-04-29T06:43:43;6.95;;;3.72;;
33154;SDS011;19511;42.682;23.332;2023-04-29T06:46:09;7.45;;;4.22;;
33154;SDS011;19511;42.682;23.332;2023-04-29T06:48:35;12.65;;;2.97;;
33154;SDS011;19511;42.682;23.332;2023-04-29T06:51:01;5.45;;;3.20;;
33154;SDS011;19511;42.682;23.332;2023-04-29T06:53:26;7.47;;;3.25;;
33154;SDS011;19511;42.682;23.332;2023-04-29T06:55:52;1.98;;;1.83;;
33154;SDS011;19511;42.682;23.332;2023-04-29T06:58:17;8.13;;;3.50;;
33154;SDS011;19511;42.682;23.332;2023-04-29T07:00:43;7.15;;;2.67;;
33154;SDS011;19511;42.682;23.332;2023-04-29T07:03:11;5.85;;;2.78;;
33154;SDS011;19511;42.682;23.332;2023-04-29T07:05:36;8.63;;;2.70;;
33154;SDS011;19511;42.682;23.332;2023-04-29T07:08:04;7.95;;;3.67;;
33154;SDS011;19511;42.682;23.332;2023-04-29T07:10:30;7.30;;;3.10;;
33154;SDS011;19511;42.682;23.332;2023-04-29T07:12:56;6.65;;;3.47;;
33154;SDS011;19511;42.682;23.332;2023-04-29T07:15:23;9.77;;;3.33;;
33154;SDS011;19511;42.682;23.332;2023-04-29T07:17:54;7.25;;;3.17;;
33154;SDS011;19511;42.682;23.332;2023-04-29T07:20:20;4.65;;;3.45;;
33154;SDS011;19511;42.682;23.332;2023-04-29T07:22:45;6.50;;;3.38;;
33154;SDS011;19511;42.682;23.332;2023-04-29T07:25:12;4.95;;;3.13;;
33154;SDS011;19511;42.682;23.332;2023-04-29T07:27:40;5.30;;;2.83;;
33154;SDS011;19511;42.682;23.332;2023-04-29T07:30:06;6.35;;;3.58;;
33154;SDS011;19511;42.682;23.332;2023-04-29T07:32:31;6.38;;;3.40;;
33154;SDS011;19511;42.682;23.332;2023-04-29T07:34:57;3.95;;;2.75;;
33154;SDS011;19511;42.682;23.332;2023-04-29T07:37:29;7.35;;;3.35;;
33154;SDS011;19511;42.682;23.332;2023-04-29T07:39:56;7.03;;;2.67;;
33154;SDS011;19511;42.682;23.332;2023-04-29T07:42:21;7.00;;;3.25;;
33154;SDS011;19511;42.682;23.332;2023-04-29T07:44:46;4.85;;;2.95;;
33154;SDS011;19511;42.682;23.332;2023-04-29T07:47:12;6.80;;;3.35;;
33154;SDS011;19511;42.682;23.332;2023-04-29T07:49:37;8.75;;;3.95;;
33154;SDS011;19511;42.682;23.332;2023-04-29T07:52:06;5.13;;;3.15;;
33154;SDS011;19511;42.682;23.332;2023-04-29T07:54:36;8.88;;;3.53;;
33154;SDS011;19511;42.682;23.332;2023-04-29T07:57:04;8.18;;;3.40;;
33154;SDS011;19511;42.682;23.332;2023-04-29T07:59:30;11.60;;;3.35;;
33154;SDS011;19511;42.682;23.332;2023-04-29T08:01:56;5.60;;;3.08;;
33154;SDS011;19511;42.682;23.332;2023-04-29T08:04:25;7.13;;;3.33;;
33154;SDS011;19511;42.682;23.332;2023-04-29T08:06:51;7.40;;;2.38;;
33154;SDS011;19511;42.682;23.332;2023-04-29T08:09:16;4.47;;;2.83;;
33154;SDS011;19511;42.682;23.332;2023-04-29T08:11:42;5.10;;;2.67;;
33154;SDS011;19511;42.682;23.332;2023-04-29T08:14:08;4.97;;;2.95;;
33154;SDS011;19511;42.682;23.332;2023-04-29T08:16:34;9.60;;;2.47;;
33154;SDS011;19511;42.682;23.332;2023-04-29T08:19:00;4.85;;;2.90;;
33154;SDS011;19511;42.682;23.332;2023-04-29T08:21:25;4.15;;;2.92;;
33154;SDS011;19511;42.682;23.332;2023-04-29T08:23:51;5.53;;;2.70;;
33154;SDS011;19511;42.682;23.332;2023-04-29T08:26:20;3.78;;;2.50;;
33154;SDS011;19511;42.682;23.332;2023-04-29T08:28:47;5.82;;;2.97;;
33154;SDS011;19511;42.682;23.332;2023-04-29T08:31:16;7.30;;;3.17;;
33154;SDS011;19511;42.682;23.332;2023-04-29T08:33:45;4.70;;;2.50;;
33154;SDS011;19511;42.682;23.332;2023-04-29T08:36:11;9.85;;;2.78;;
33154;SDS011;19511;42.682;23.332;2023-04-29T08:38:37;6.65;;;2.65;;
33154;SDS011;19511;42.682;23.332;2023-04-29T08:41:05;6.35;;;2.63;;
33154;SDS011;19511;42.682;23.332;2023-04-29T08:43:33;4.03;;;2.67;;
33154;SDS011;19511;42.682;23.332;2023-04-29T08:46:07;3.78;;;2.90;;
33154;SDS011;19511;42.682;23.332;2023-04-29T08:48:44;8.50;;;2.80;;
33154;SDS011;19511;42.682;23.332;2023-04-29T08:51:11;7.78;;;3.00;;
33154;SDS011;19511;42.682;23.332;2023-04-29T08:53:41;13.50;;;2.70;;
33154;SDS011;19511;42.682;23.332;2023-04-29T08:56:15;10.10;;;3.88;;
33154;SDS011;19511;42.682;23.332;2023-04-29T08:58:44;4.28;;;2.42;;
33154;SDS011;19511;42.682;23.332;2023-04-29T09:01:13;5.38;;;2.72;;
33154;SDS011;19511;42.682;23.332;2023-04-29T09:06:40;7.55;;;2.72;;
33154;SDS011;19511;42.682;23.332;2023-04-29T09:09:08;2.92;;;2.45;;
33154;SDS011;19511;42.682;23.332;2023-04-29T09:11:34;5.10;;;2.80;;
33154;SDS011;19511;42.682;23.332;2023-04-29T09:14:01;14.43;;;3.08;;
33154;SDS011;19511;42.682;23.332;2023-04-29T09:16:28;10.32;;;3.50;;
33154;SDS011;19511;42.682;23.332;2023-04-29T09:18:54;10.23;;;2.80;;
33154;SDS011;19511;42.682;23.332;2023-04-29T09:23:49;9.30;;;2.80;;
33154;SDS011;19511;42.682;23.332;2023-04-29T09:26:19;5.45;;;2.70;;
33154;SDS011;19511;42.682;23.332;2023-04-29T09:28:46;5.40;;;2.80;;
33154;SDS011;19511;42.682;23.332;2023-04-29T09:31:13;7.53;;;3.58;;
33154;SDS011;19511;42.682;23.332;2023-04-29T09:33:56;7.63;;;2.70;;
33154;SDS011;19511;42.682;23.332;2023-04-29T09:39:09;4.50;;;2.78;;
33154;SDS011;19511;42.682;23.332;2023-04-29T09:44:16;6.85;;;3.53;;
33154;SDS011;19511;42.682;23.332;2023-04-29T09:46:42;4.38;;;2.47;;
33154;SDS011;19511;42.682;23.332;2023-04-29T09:49:21;4.50;;;2.67;;
33154;SDS011;19511;42.682;23.332;2023-04-29T09:51:57;6.20;;;3.85;;
33154;SDS011;19511;42.682;23.332;2023-04-29T09:54:29;5.82;;;3.45;;
33154;SDS011;19511;42.682;23.332;2023-04-29T09:56:56;4.05;;;2.70;;
33154;SDS011;19511;42.682;23.332;2023-04-29T09:59:23;15.90;;;3.45;;
33154;SDS011;19511;42.682;23.332;2023-04-29T10:01:50;7.78;;;3.42;;
33154;SDS011;19511;42.682;23.332;2023-04-29T10:04:20;8.35;;;3.55;;
33154;SDS011;19511;42.682;23.332;2023-04-29T10:06:50;8.13;;;3.90;;
33154;SDS011;19511;42.682;23.332;2023-04-29T10:09:18;4.63;;;2.80;;
33154;SDS011;19511;42.682;23.332;2023-04-29T10:11:45;7.35;;;3.42;;
33154;SDS011;19511;42.682;23.332;2023-04-29T10:14:18;5.22;;;2.67;;
33154;SDS011;19511;42.682;23.332;2023-04-29T10:19:17;6.50;;;2.85;;
33154;SDS011;19511;42.682;23.332;2023-04-29T10:21:53;3.80;;;2.75;;
33154;SDS011;19511;42.682;23.332;2023-04-29T10:24:25;10.48;;;3.45;;
33154;SDS011;19511;42.682;23.332;2023-04-29T10:26:51;9.15;;;2.75;;
33154;SDS011;19511;42.682;23.332;2023-04-29T10:29:18;5.60;;;2.53;;
33154;SDS011;19511;42.682;23.332;2023-04-29T10:31:45;7.60;;;3.00;;
33154;SDS011;19511;42.682;23.332;2023-04-29T10:34:12;4.93;;;2.35;;
33154;SDS011;19511;42.682;23.332;2023-04-29T10:36:46;5.03;;;2.60;;
33154;SDS011;19511;42.682;23.332;2023-04-29T10:39:30;11.32;;;2.92;;
33154;SDS011;19511;42.682;23.332;2023-04-29T10:45:33;4.15;;;2.13;;
33154;SDS011;19511;42.682;23.332;2023-04-29T10:51:12;4.43;;;2.40;;
33154;SDS011;19511;42.682;23.332;2023-04-29T10:53:19;3.75;;;2.00;;
33154;SDS011;19511;42.682;23.332;2023-04-29T10:55:55;3.38;;;2.08;;
33154;SDS011;19511;42.682;23.332;2023-04-29T11:01:05;3.33;;;1.75;;
33154;SDS011;19511;42.682;23.332;2023-04-29T11:06:19;8.73;;;2.53;;
33154;SDS011;19511;42.682;23.332;2023-04-29T11:09:02;2.85;;;1.70;;
33154;SDS011;19511;42.682;23.332;2023-04-29T11:11:40;2.38;;;1.77;;
33154;SDS011;19511;42.682;23.332;2023-04-29T11:14:07;1.75;;;1.25;;
33154;SDS011;19511;42.682;23.332;2023-04-29T11:16:35;3.08;;;1.52;;
33154;SDS011;19511;42.682;23.332;2023-04-29T11:21:36;1.33;;;1.07;;
33154;SDS011;19511;42.682;23.332;2023-04-29T11:24:02;5.70;;;1.85;;
33154;SDS011;19511;42.682;23.332;2023-04-29T11:26:32;3.45;;;1.20;;
33154;SDS011;19511;42.682;23.332;2023-04-29T11:28:58;3.03;;;0.82;;
33154;SDS011;19511;42.682;23.332;2023-04-29T11:31:25;0.90;;;0.70;;
33154;SDS011;19511;42.682;23.332;2023-04-29T11:33:57;8.00;;;1.27;;
33154;SDS011;19511;42.682;23.332;2023-04-29T11:36:24;1.98;;;1.13;;
33154;SDS011;19511;42.682;23.332;2023-04-29T11:38:54;2.97;;;1.10;;
33154;SDS011;19511;42.682;23.332;2023-04-29T11:41:23;1.25;;;0.70;;
33154;SDS011;19511;42.682;23.332;2023-04-29T11:43:58;1.80;;;1.35;;
33154;SDS011;19511;42.682;23.332;2023-04-29T11:46:25;2.47;;;1.25;;
33154;SDS011;19511;42.682;23.332;2023-04-29T11:48:56;3.75;;;1.27;;
33154;SDS011;19511;42.682;23.332;2023-04-29T11:51:28;2.92;;;1.33;;
33154;SDS011;19511;42.682;23.332;2023-04-29T11:53:54;1.00;;;0.77;;
33154;SDS011;19511;42.682;23.332;2023-04-29T11:56:21;2.83;;;1.40;;
33154;SDS011;19511;42.682;23.332;2023-04-29T11:58:54;3.63;;;1.27;;
33154;SDS011;19511;42.682;23.332;2023-04-29T12:01:24;2.97;;;1.38;;
33154;SDS011;19511;42.682;23.332;2023-04-29T12:03:50;1.33;;;1.02;;
33154;SDS011;19511;42.682;23.332;2023-04-29T12:06:28;4.90;;;1.15;;
33154;SDS011;19511;42.682;23.332;2023-04-29T12:08:57;1.92;;;0.90;;
33154;SDS011;19511;42.682;23.332;2023-04-29T12:11:24;3.97;;;1.45;;
33154;SDS011;19511;42.682;23.332;2023-04-29T12:13:50;3.03;;;1.20;;
33154;SDS011;19511;42.682;23.332;2023-04-29T12:16:16;5.25;;;1.48;;
33154;SDS011;19511;42.682;23.332;2023-04-29T12:18:48;2.30;;;0.80;;
33154;SDS011;19511;42.682;23.332;2023-04-29T12:21:15;1.60;;;0.90;;
33154;SDS011;19511;42.682;23.332;2023-04-29T12:23:45;1.35;;;1.10;;
33154;SDS011;19511;42.682;23.332;2023-04-29T12:26:11;2.60;;;1.20;;
33154;SDS011;19511;42.682;23.332;2023-04-29T12:28:43;3.30;;;1.20;;
33154;SDS011;19511;42.682;23.332;2023-04-29T12:31:09;1.80;;;1.10;;
33154;SDS011;19511;42.682;23.332;2023-04-29T12:33:37;2.80;;;1.15;;
33154;SDS011;19511;42.682;23.332;2023-04-29T12:36:14;3.05;;;1.20;;
33154;SDS011;19511;42.682;23.332;2023-04-29T12:38:44;3.75;;;1.23;;
33154;SDS011;19511;42.682;23.332;2023-04-29T12:41:14;2.05;;;0.80;;
33154;SDS011;19511;42.682;23.332;2023-04-29T12:43:42;1.23;;;1.00;;
33154;SDS011;19511;42.682;23.332;2023-04-29T12:46:09;2.22;;;1.45;;
33154;SDS011;19511;42.682;23.332;2023-04-29T12:48:37;2.78;;;1.25;;
33154;SDS011;19511;42.682;23.332;2023-04-29T12:51:07;1.50;;;1.10;;
33154;SDS011;19511;42.682;23.332;2023-04-29T12:53:37;3.22;;;1.27;;
33154;SDS011;19511;42.682;23.332;2023-04-29T12:56:06;3.08;;;1.35;;
33154;SDS011;19511;42.682;23.332;2023-04-29T12:58:32;2.70;;;1.45;;
33154;SDS011;19511;42.682;23.332;2023-04-29T13:01:00;5.07;;;1.20;;
33154;SDS011;19511;42.682;23.332;2023-04-29T13:03:33;5.72;;;1.23;;
33154;SDS011;19511;42.682;23.332;2023-04-29T13:06:04;3.67;;;0.95;;
33154;SDS011;19511;42.682;23.332;2023-04-29T13:11:01;4.88;;;1.02;;
33154;SDS011;19511;42.682;23.332;2023-04-29T13:13:27;8.70;;;1.13;;
33154;SDS011;19511;42.682;23.332;2023-04-29T13:15:52;2.28;;;1.20;;
33154;SDS011;19511;42.682;23.332;2023-04-29T13:18:18;5.78;;;1.27;;
33154;SDS011;19511;42.682;23.332;2023-04-29T13:20:50;4.28;;;1.67;;
33154;SDS011;19511;42.682;23.332;2023-04-29T13:23:19;4.10;;;1.52;;
33154;SDS011;19511;42.682;23.332;2023-04-29T13:25:51;3.67;;;1.58;;
33154;SDS011;19511;42.682;23.332;2023-04-29T13:28:17;1.15;;;0.63;;
33154;SDS011;19511;42.682;23.332;2023-04-29T13:30:50;4.28;;;1.50;;
33154;SDS011;19511;42.682;23.332;2023-04-29T13:33:18;3.83;;;1.20;;
33154;SDS011;19511;42.682;23.332;2023-04-29T13:35:47;5.28;;;0.85;;
33154;SDS011;19511;42.682;23.332;2023-04-29T13:38:16;3.45;;;1.10;;
33154;SDS011;19511;42.682;23.332;2023-04-29T13:40:42;2.15;;;0.90;;
33154;SDS011;19511;42.682;23.332;2023-04-29T13:43:15;2.03;;;0.90;;
33154;SDS011;19511;42.682;23.332;2023-04-29T13:45:46;7.53;;;0.82;;
33154;SDS011;19511;42.682;23.332;2023-04-29T13:48:12;1.30;;;0.70;;
33154;SDS011;19511;42.682;23.332;2023-04-29T13:50:40;1.45;;;0.73;;
33154;SDS011;19511;42.682;23.332;2023-04-29T13:53:17;2.35;;;1.00;;
33154;SDS011;19511;42.682;23.332;2023-04-29T13:55:46;1.38;;;1.02;;
33154;SDS011;19511;42.682;23.332;2023-04-29T13:58:15;0.80;;;0.70;;
33154;SDS011;19511;42.682;23.332;2023-04-29T14:00:41;1.42;;;0.95;;
33154;SDS011;19511;42.682;23.332;2023-04-29T14:03:07;1.20;;;1.00;;
33154;SDS011;19511;42.682;23.332;2023-04-29T14:05:39;2.08;;;1.15;;
33154;SDS011;19511;42.682;23.332;2023-04-29T14:08:12;3.63;;;1.30;;
33154;SDS011;19511;42.682;23.332;2023-04-29T14:10:42;2.13;;;1.55;;
33154;SDS011;19511;42.682;23.332;2023-04-29T14:13:07;1.17;;;0.95;;
33154;SDS011;19511;42.682;23.332;2023-04-29T14:15:33;0.95;;;0.80;;
33154;SDS011;19511;42.682;23.332;2023-04-29T14:18:06;2.03;;;1.00;;
33154;SDS011;19511;42.682;23.332;2023-04-29T14:20:36;1.60;;;0.70;;
33154;SDS011;19511;42.682;23.332;2023-04-29T14:23:06;1.67;;;1.23;;
33154;SDS011;19511;42.682;23.332;2023-04-29T14:25:35;1.95;;;0.93;;
33154;SDS011;19511;42.682;23.332;2023-04-29T14:28:04;2.85;;;0.98;;
33154;SDS011;19511;42.682;23.332;2023-04-29T14:30:30;2.47;;;1.50;;
33154;SDS011;19511;42.682;23.332;2023-04-29T14:32:56;2.28;;;1.00;;
33154;SDS011;19511;42.682;23.332;2023-04-29T14:35:21;2.55;;;1.38;;
33154;SDS011;19511;42.682;23.332;2023-04-29T14:37:47;1.77;;;0.93;;
33154;SDS011;19511;42.682;23.332;2023-04-29T14:40:15;2.67;;;1.40;;
33154;SDS011;19511;42.682;23.332;2023-04-29T14:42:40;4.93;;;1.98;;
33154;SDS011;19511;42.682;23.332;2023-04-29T14:45:08;1.88;;;1.30;;
33154;SDS011;19511;42.682;23.332;2023-04-29T14:47:34;2.58;;;1.20;;
33154;SDS011;19511;42.682;23.332;2023-04-29T14:49:59;2.33;;;1.60;;
33154;SDS011;19511;42.682;23.332;2023-04-29T14:52:26;3.17;;;1.50;;
33154;SDS011;19511;42.682;23.332;2023-04-29T14:54:52;6.25;;;1.23;;
33154;SDS011;19511;42.682;23.332;2023-04-29T14:57:21;4.18;;;1.70;;
33154;SDS011;19511;42.682;23.332;2023-04-29T14:59:46;3.33;;;1.77;;
33154;SDS011;19511;42.682;23.332;2023-04-29T15:02:13;9.00;;;1.40;;
33154;SDS011;19511;42.682;23.332;2023-04-29T15:04:38;8.35;;;2.35;;
33154;SDS011;19511;42.682;23.332;2023-04-29T15:07:09;3.63;;;1.80;;
33154;SDS011;19511;42.682;23.332;2023-04-29T15:09:40;1.17;;;1.08;;
33154;SDS011;19511;42.682;23.332;2023-04-29T15:12:10;2.08;;;1.27;;
33154;SDS011;19511;42.682;23.332;2023-04-29T15:14:39;1.90;;;1.38;;
33154;SDS011;19511;42.682;23.332;2023-04-29T15:17:07;2.05;;;1.15;;
33154;SDS011;19511;42.682;23.332;2023-04-29T15:19:32;2.60;;;1.50;;
33154;SDS011;19511;42.682;23.332;2023-04-29T15:22:02;3.17;;;1.40;;
33154;SDS011;19511;42.682;23.332;2023-04-29T15:24:28;2.45;;;1.15;;
33154;SDS011;19511;42.682;23.332;2023-04-29T15:26:57;3.85;;;1.30;;